createdAt,value
2023-03-20T00:00:20.826Z,11.97
2023-03-20T00:03:11.543Z,8.00
2023-03-20T00:06:00.075Z,7.00
2023-03-20T00:08:49.959Z,4.30
2023-03-20T00:11:43.509Z,3.60
2023-03-20T00:14:40.402Z,3.50
2023-03-20T00:17:28.913Z,3.77
2023-03-20T00:20:18.016Z,3.37
2023-03-20T00:23:06.544Z,3.43
2023-03-20T00:25:55.060Z,3.40
2023-03-20T00:28:45.216Z,3.03
2023-03-20T00:31:37.084Z,2.90
2023-03-20T00:34:29.021Z,2.73
2023-03-20T00:37:17.539Z,3.37
2023-03-20T00:40:07.497Z,3.20
2023-03-20T00:43:00.529Z,4.37
2023-03-20T00:45:49.134Z,2.80
2023-03-20T00:48:40.257Z,3.47
2023-03-20T00:51:28.748Z,3.17
2023-03-20T00:54:18.602Z,3.03
2023-03-20T00:57:09.442Z,2.70
2023-03-20T01:00:00.043Z,2.83
2023-03-20T01:02:48.843Z,2.70
2023-03-20T01:05:39.006Z,2.80
2023-03-20T01:08:27.648Z,3.47
2023-03-20T01:11:18.172Z,3.67
2023-03-20T01:14:07.307Z,3.70
2023-03-20T01:16:55.868Z,3.83
2023-03-20T01:19:44.407Z,3.10
2023-03-20T01:22:34.214Z,2.50
2023-03-20T01:25:23.257Z,2.90
2023-03-20T01:28:18.289Z,3.67
2023-03-20T01:31:07.220Z,2.57
2023-03-20T01:33:55.754Z,2.43
2023-03-20T01:36:46.856Z,2.40
2023-03-20T01:39:37.723Z,2.43
2023-03-20T01:42:26.312Z,1.80
2023-03-20T01:45:18.016Z,2.70
2023-03-20T01:48:15.322Z,3.10
2023-03-20T01:51:03.844Z,2.87
2023-03-20T01:53:54.349Z,3.10
2023-03-20T01:56:47.205Z,4.40
2023-03-20T01:59:38.056Z,4.17
2023-03-20T02:02:30.310Z,3.80
2023-03-20T02:05:20.850Z,3.10
2023-03-20T02:08:23.025Z,3.23
2023-03-20T02:11:11.937Z,3.00
2023-03-20T02:14:02.874Z,3.30
2023-03-20T02:16:51.553Z,3.17
2023-03-20T02:19:45.643Z,3.00
2023-03-20T02:23:24.768Z,3.00
2023-03-20T02:26:24.184Z,2.90
2023-03-20T02:29:39.598Z,3.00
2023-03-20T02:33:06.535Z,2.87
2023-03-20T02:36:33.684Z,2.73
2023-03-20T02:39:51.161Z,3.10
2023-03-20T02:42:43.666Z,4.20
2023-03-20T02:45:35.903Z,3.17
2023-03-20T02:48:34.733Z,2.97
2023-03-20T02:51:30.993Z,3.40
2023-03-20T02:54:23.781Z,3.90
2023-03-20T02:57:18.184Z,3.83
2023-03-20T03:00:10.192Z,3.77
2023-03-20T03:03:05.867Z,4.00
2023-03-20T03:05:55.929Z,3.80
2023-03-20T03:08:48.905Z,3.83
2023-03-20T03:11:40.218Z,4.30
2023-03-20T03:14:35.671Z,4.70
2023-03-20T03:17:26.694Z,5.37
2023-03-20T03:20:21.009Z,6.03
2023-03-20T03:23:13.184Z,6.30
2023-03-20T03:26:03.877Z,6.87
2023-03-20T03:28:55.682Z,7.53
2023-03-20T03:31:46.075Z,7.70
2023-03-20T03:34:35.636Z,7.60
2023-03-20T03:37:30.456Z,8.90
2023-03-20T03:40:22.898Z,7.60
2023-03-20T03:43:16.456Z,8.07
2023-03-20T03:46:08.665Z,8.97
2023-03-20T03:48:58.884Z,8.20
2023-03-20T03:51:51.042Z,8.07
2023-03-20T03:54:43.572Z,9.17
2023-03-20T03:57:35.494Z,9.17
2023-03-20T04:00:25.415Z,8.90
2023-03-20T04:03:14.098Z,8.20
2023-03-20T04:06:04.739Z,7.90
2023-03-20T04:08:53.266Z,7.63
2023-03-20T04:11:41.762Z,7.47
2023-03-20T04:14:30.619Z,7.57
2023-03-20T04:17:19.104Z,8.60
2023-03-20T04:20:09.145Z,7.70
2023-03-20T04:22:59.072Z,8.40
2023-03-20T04:25:47.575Z,7.77
2023-03-20T04:28:36.386Z,7.87
2023-03-20T04:31:24.993Z,8.17
2023-03-20T04:34:13.525Z,9.00
2023-03-20T04:37:02.126Z,8.83
2023-03-20T04:39:51.995Z,8.40
2023-03-20T04:42:40.515Z,8.97
2023-03-20T04:45:28.962Z,9.33
2023-03-20T04:48:17.440Z,9.77
2023-03-20T04:51:06.458Z,9.73
2023-03-20T04:53:55.070Z,9.33
2023-03-20T04:56:45.026Z,10.13
2023-03-20T04:59:33.502Z,10.10
2023-03-20T05:02:21.972Z,10.90
2023-03-20T05:05:11.091Z,10.33
2023-03-20T05:07:59.601Z,10.33
2023-03-20T05:10:48.064Z,11.17
2023-03-20T05:13:37.996Z,9.73
2023-03-20T05:16:26.687Z,10.13
2023-03-20T05:19:15.352Z,10.70
2023-03-20T05:22:03.848Z,11.33
2023-03-20T05:24:52.828Z,12.47
2023-03-20T05:27:41.343Z,11.93
2023-03-20T05:30:31.218Z,12.00
2023-03-20T05:33:19.861Z,12.77
2023-03-20T05:36:09.282Z,12.83
2023-03-20T05:38:57.824Z,12.40
2023-03-20T05:41:46.343Z,12.57
2023-03-20T05:44:34.805Z,13.63
2023-03-20T05:47:26.188Z,12.77
2023-03-20T05:50:14.878Z,12.83
2023-03-20T05:53:03.594Z,13.83
2023-03-20T05:55:52.155Z,13.77
2023-03-20T05:58:40.605Z,15.10
2023-03-20T06:01:29.112Z,12.53
2023-03-20T06:04:18.897Z,14.00
2023-03-20T06:07:07.478Z,14.07
2023-03-20T06:09:56.221Z,15.10
2023-03-20T06:12:44.675Z,15.63
2023-03-20T06:15:33.229Z,15.10
2023-03-20T06:18:21.708Z,16.40
2023-03-20T06:21:12.968Z,16.03
2023-03-20T06:24:01.532Z,16.70
2023-03-20T06:26:50.014Z,16.73
2023-03-20T06:29:38.500Z,14.67
2023-03-20T06:32:27.018Z,14.90
2023-03-20T06:35:15.723Z,14.30
2023-03-20T06:38:05.614Z,15.33
2023-03-20T06:40:54.066Z,14.03
2023-03-20T06:43:44.142Z,15.00
2023-03-20T06:46:32.781Z,13.80
2023-03-20T06:49:21.425Z,15.17
2023-03-20T06:52:16.394Z,14.00
2023-03-20T06:55:07.089Z,14.07
2023-03-20T06:57:55.576Z,14.00
2023-03-20T07:00:44.945Z,14.67
2023-03-20T07:03:33.488Z,14.00
2023-03-20T07:06:23.030Z,13.47
2023-03-20T07:09:11.612Z,14.27
2023-03-20T07:12:02.401Z,14.50
2023-03-20T07:14:50.963Z,12.70
2023-03-20T07:17:39.456Z,14.30
2023-03-20T07:20:28.155Z,14.10
2023-03-20T07:23:16.690Z,14.40
2023-03-20T07:26:05.610Z,13.87
2023-03-20T07:28:55.511Z,12.50
2023-03-20T07:31:44.115Z,12.17
2023-03-20T07:34:32.757Z,11.60
2023-03-20T07:37:21.325Z,11.50
2023-03-20T07:40:11.136Z,11.67
2023-03-20T07:42:59.770Z,11.23
2023-03-20T07:45:49.647Z,11.03
2023-03-20T07:48:38.163Z,12.37
2023-03-20T07:51:26.814Z,11.40
2023-03-20T07:54:16.122Z,12.50
2023-03-20T07:57:05.397Z,11.27
2023-03-20T07:59:53.862Z,11.50
2023-03-20T08:02:43.918Z,11.13
2023-03-20T08:05:32.552Z,11.57
2023-03-20T08:08:21.228Z,11.37
2023-03-20T08:11:09.937Z,11.33
2023-03-20T08:13:58.442Z,10.23
2023-03-20T08:16:46.959Z,10.60
2023-03-20T08:19:38.305Z,11.37
2023-03-20T08:22:26.830Z,10.70
2023-03-20T08:25:15.329Z,11.00
2023-03-20T08:28:04.470Z,11.23
2023-03-20T08:30:53.141Z,11.50
2023-03-20T08:33:41.696Z,10.83
2023-03-20T08:36:31.542Z,10.67
2023-03-20T08:39:20.141Z,9.40
2023-03-20T08:42:08.668Z,10.10
2023-03-20T08:44:58.663Z,9.73
2023-03-20T08:47:48.766Z,8.90
2023-03-20T08:50:37.838Z,9.13
2023-03-20T08:53:27.714Z,8.50
2023-03-20T08:56:16.271Z,8.00
2023-03-20T08:59:04.883Z,9.23
2023-03-20T09:01:53.534Z,9.00
2023-03-20T09:04:42.139Z,9.10
2023-03-20T09:07:30.597Z,9.47
2023-03-20T09:10:20.509Z,10.20
2023-03-20T09:13:25.784Z,11.70
2023-03-20T09:16:15.191Z,10.57
2023-03-20T09:19:03.798Z,9.63
2023-03-20T09:21:52.294Z,10.30
2023-03-20T09:24:40.987Z,8.90
2023-03-20T09:27:30.866Z,9.70
2023-03-20T09:30:19.553Z,10.23
2023-03-20T09:33:08.030Z,8.97
2023-03-20T09:35:56.676Z,9.87
2023-03-20T09:38:45.208Z,8.47
2023-03-20T09:41:52.928Z,7.97
2023-03-20T09:44:54.792Z,8.97
2023-03-20T09:47:48.917Z,9.43
2023-03-20T09:50:40.438Z,8.03
2023-03-20T09:53:31.661Z,7.90
2023-03-20T09:56:22.827Z,7.80
2023-03-20T09:59:16.050Z,8.03
2023-03-20T10:02:12.442Z,7.10
2023-03-20T10:05:01.153Z,7.90
2023-03-20T10:07:49.792Z,7.13
2023-03-20T10:10:47.650Z,7.10
2023-03-20T10:13:45.156Z,7.17
2023-03-20T10:16:43.728Z,7.97
2023-03-20T10:19:35.251Z,6.80
2023-03-20T10:22:25.489Z,5.70
2023-03-20T10:25:24.723Z,5.73
2023-03-20T10:28:14.718Z,6.80
2023-03-20T10:31:15.684Z,6.10
2023-03-20T10:34:14.894Z,6.80
2023-03-20T10:37:17.027Z,5.90
2023-03-20T10:40:24.821Z,6.70
2023-03-20T10:43:17.985Z,5.77
2023-03-20T10:46:10.426Z,5.80
2023-03-20T10:49:02.506Z,6.30
2023-03-20T10:51:53.932Z,6.80
2023-03-20T10:54:45.474Z,6.27
2023-03-20T10:57:36.470Z,6.40
2023-03-20T11:00:27.918Z,5.30
2023-03-20T11:03:22.648Z,5.03
2023-03-20T11:06:18.592Z,5.87
2023-03-20T11:09:13.055Z,5.10
2023-03-20T11:12:05.578Z,5.13
2023-03-20T11:15:00.452Z,5.63
2023-03-20T11:17:54.110Z,5.43
2023-03-20T11:20:46.988Z,4.70
2023-03-20T11:23:36.560Z,5.13
2023-03-20T11:26:34.096Z,5.60
2023-03-20T11:29:27.936Z,5.40
2023-03-20T11:32:27.710Z,5.40
2023-03-20T11:35:25.302Z,5.50
2023-03-20T11:38:16.091Z,5.43
2023-03-20T11:41:06.215Z,5.33
2023-03-20T11:43:55.228Z,5.30
2023-03-20T11:46:45.608Z,5.07
2023-03-20T11:49:36.217Z,5.10
2023-03-20T11:52:28.635Z,4.47
2023-03-20T11:55:26.104Z,5.13
2023-03-20T11:58:16.862Z,4.00
2023-03-20T12:01:05.728Z,4.20
2023-03-20T12:04:09.093Z,6.33
2023-03-20T12:06:59.816Z,5.07
2023-03-20T12:09:50.908Z,4.80
2023-03-20T12:12:42.117Z,4.43
2023-03-20T12:15:33.108Z,4.90
2023-03-20T12:18:26.569Z,5.20
2023-03-20T12:21:21.046Z,5.50
2023-03-20T12:24:14.647Z,4.83
2023-03-20T12:27:17.126Z,5.27
2023-03-20T12:30:11.597Z,4.57
2023-03-20T12:33:04.495Z,5.20
2023-03-20T12:35:54.456Z,5.20
2023-03-20T12:38:45.372Z,4.90
2023-03-20T12:41:40.132Z,5.27
2023-03-20T12:44:37.838Z,5.60
2023-03-20T12:47:54.085Z,5.90
2023-03-20T12:50:43.258Z,5.50
2023-03-20T12:53:42.407Z,4.90
2023-03-20T12:56:51.497Z,4.90
2023-03-20T12:59:50.189Z,5.07
2023-03-20T13:02:47.342Z,4.90
2023-03-20T13:05:42.916Z,4.17
2023-03-20T13:08:44.392Z,4.83
2023-03-20T13:11:37.468Z,4.97
2023-03-20T13:14:30.610Z,4.63
2023-03-20T13:17:23.872Z,4.17
2023-03-20T13:20:27.056Z,3.57
2023-03-20T13:23:22.478Z,3.97
2023-03-20T13:26:22.330Z,4.40
2023-03-20T13:29:15.586Z,4.07
2023-03-20T13:32:17.084Z,4.03
2023-03-20T13:35:31.927Z,3.80
2023-03-20T13:38:22.791Z,4.17
2023-03-20T13:41:14.346Z,4.20
2023-03-20T13:44:04.516Z,3.60
2023-03-20T13:46:56.209Z,4.03
2023-03-20T13:49:52.056Z,3.00
2023-03-20T13:52:44.217Z,3.30
2023-03-20T13:55:38.907Z,4.90
2023-03-20T13:58:38.464Z,4.10
2023-03-20T14:01:33.850Z,4.20
2023-03-20T14:04:24.621Z,4.10
2023-03-20T14:10:39.211Z,3.80
2023-03-20T14:13:28.185Z,3.90
2023-03-20T14:16:18.387Z,4.13
2023-03-20T14:19:10.531Z,4.30
2023-03-20T14:22:00.550Z,4.00
2023-03-20T14:24:58.229Z,3.80
2023-03-20T14:27:59.805Z,4.40
2023-03-20T14:30:50.744Z,4.07
2023-03-20T14:33:44.287Z,4.70
2023-03-20T14:36:45.918Z,4.80
2023-03-20T14:39:46.874Z,3.90
2023-03-20T14:42:44.554Z,4.13
2023-03-20T14:45:39.274Z,4.17
2023-03-20T14:48:31.993Z,3.97
2023-03-20T14:51:29.742Z,3.97
2023-03-20T14:54:25.900Z,4.50
2023-03-20T14:57:20.030Z,3.33
2023-03-20T15:00:19.488Z,3.70
2023-03-20T15:03:11.287Z,3.30
2023-03-20T15:06:02.186Z,3.73
2023-03-20T15:08:53.197Z,3.70
2023-03-20T15:11:42.843Z,3.70
2023-03-20T15:14:35.443Z,4.30
2023-03-20T15:17:26.535Z,4.60
2023-03-20T15:20:19.197Z,4.00
2023-03-20T15:23:08.524Z,3.70
2023-03-20T15:25:57.053Z,4.00
2023-03-20T15:28:46.526Z,3.67
2023-03-20T15:31:36.508Z,3.73
2023-03-20T15:34:27.439Z,3.70
2023-03-20T15:37:18.900Z,3.43
2023-03-20T15:40:13.733Z,3.10
2023-03-20T15:43:07.230Z,3.57
2023-03-20T15:46:14.201Z,3.40
2023-03-20T15:49:06.237Z,3.87
2023-03-20T15:51:57.256Z,3.97
2023-03-20T15:54:47.712Z,3.90
2023-03-20T15:57:38.877Z,3.00
2023-03-20T16:00:31.011Z,3.53
2023-03-20T16:03:21.874Z,3.70
2023-03-20T16:06:12.279Z,3.80
2023-03-20T16:09:02.481Z,3.60
2023-03-20T16:11:57.777Z,3.60
2023-03-20T16:14:48.326Z,3.27
2023-03-20T16:17:36.925Z,3.77
2023-03-20T16:20:27.304Z,3.73
2023-03-20T16:23:24.613Z,3.60
2023-03-20T16:26:17.021Z,4.53
2023-03-20T16:29:07.641Z,4.30
2023-03-20T16:31:58.741Z,4.90
2023-03-20T16:34:52.086Z,5.13
2023-03-20T16:37:44.410Z,5.73
2023-03-20T16:40:34.729Z,5.17
2023-03-20T16:43:28.743Z,4.80
2023-03-20T16:46:22.580Z,4.67
2023-03-20T16:49:52.161Z,5.23
2023-03-20T16:52:41.977Z,5.50
2023-03-20T16:55:32.302Z,5.50
2023-03-20T16:58:23.460Z,5.63
2023-03-20T17:01:17.028Z,5.20
2023-03-20T17:04:15.917Z,4.63
2023-03-20T17:07:08.711Z,5.50
2023-03-20T17:10:00.630Z,4.63
2023-03-20T17:12:50.511Z,4.53
2023-03-20T17:15:38.994Z,4.10
2023-03-20T17:18:27.483Z,4.20
2023-03-20T17:21:17.335Z,4.50
2023-03-20T17:24:06.503Z,4.63
2023-03-20T17:26:56.285Z,4.37
2023-03-20T17:29:45.478Z,5.30
2023-03-20T17:32:34.235Z,4.50
2023-03-20T17:35:22.848Z,4.50
2023-03-20T17:38:18.865Z,4.73
2023-03-20T17:41:09.666Z,4.60
2023-03-20T17:43:58.192Z,5.37
2023-03-20T17:46:57.905Z,4.60
2023-03-20T17:49:51.835Z,4.87
2023-03-20T17:52:40.329Z,5.27
2023-03-20T17:55:30.256Z,4.70
2023-03-20T17:58:21.057Z,4.80
2023-03-20T18:01:10.986Z,5.27
2023-03-20T18:03:59.517Z,4.60
2023-03-20T18:06:49.145Z,4.77
2023-03-20T18:09:37.886Z,5.87
2023-03-20T18:12:27.840Z,6.03
2023-03-20T18:15:16.593Z,5.70
2023-03-20T18:18:05.761Z,6.00
2023-03-20T18:20:55.108Z,6.17
2023-03-20T18:23:43.821Z,5.03
2023-03-20T18:26:32.246Z,5.30
2023-03-20T18:29:22.498Z,5.00
2023-03-20T18:32:10.988Z,5.10
2023-03-20T18:34:59.632Z,4.57
2023-03-20T18:37:48.284Z,5.20
2023-03-20T18:40:38.549Z,5.83
2023-03-20T18:43:27.164Z,5.03
2023-03-20T18:46:18.500Z,5.33
2023-03-20T18:49:07.977Z,4.83
2023-03-20T18:51:56.514Z,5.50
2023-03-20T18:54:44.990Z,5.40
2023-03-20T18:57:34.026Z,6.73
2023-03-20T19:00:25.416Z,6.03
2023-03-20T19:03:15.573Z,6.87
2023-03-20T19:06:04.125Z,6.23
2023-03-20T19:08:53.144Z,5.53
2023-03-20T19:11:41.649Z,6.30
2023-03-20T19:14:30.255Z,5.40
2023-03-20T19:17:18.739Z,6.23
2023-03-20T19:20:18.144Z,5.40
2023-03-20T19:23:07.965Z,6.43
2023-03-20T19:25:56.645Z,6.93
2023-03-20T19:28:45.903Z,7.67
2023-03-20T19:31:34.447Z,7.20
2023-03-20T19:35:00.777Z,7.50
2023-03-20T19:37:32.742Z,6.60
2023-03-20T19:40:25.858Z,6.10
2023-03-20T19:43:15.554Z,6.20
2023-03-20T19:46:04.185Z,5.70
2023-03-20T19:48:53.663Z,5.47
2023-03-20T19:51:46.022Z,5.40
2023-03-20T19:54:35.944Z,5.00
2023-03-20T19:57:26.896Z,6.27
2023-03-20T20:03:26.907Z,6.17
2023-03-20T20:06:16.087Z,5.70
2023-03-20T20:09:05.214Z,6.10
2023-03-20T20:11:55.136Z,5.60
2023-03-20T20:14:44.187Z,7.23
2023-03-20T20:17:32.654Z,6.93
2023-03-20T20:20:25.046Z,8.33
2023-03-20T20:23:15.700Z,7.30
2023-03-20T20:26:04.860Z,7.57
2023-03-20T20:28:54.678Z,7.57
2023-03-20T20:31:43.317Z,7.80
2023-03-20T20:38:27.061Z,7.47
2023-03-20T20:40:50.806Z,6.47
2023-03-20T20:44:14.057Z,7.57
2023-03-20T20:46:51.919Z,7.80
2023-03-20T20:49:40.661Z,7.60
2023-03-20T20:52:29.197Z,6.67
2023-03-20T20:55:23.118Z,7.30
2023-03-20T20:58:12.141Z,7.33
2023-03-20T21:01:01.799Z,7.20
2023-03-20T21:03:52.316Z,6.50
2023-03-20T21:07:08.203Z,5.70
2023-03-20T21:09:50.034Z,7.07
2023-03-20T21:12:55.876Z,6.50
2023-03-20T21:15:47.434Z,7.87
2023-03-20T21:18:36.396Z,7.30
2023-03-20T21:21:26.255Z,7.40
2023-03-20T21:24:31.682Z,8.60
2023-03-20T21:27:21.956Z,8.30
2023-03-20T21:30:11.715Z,7.00
2023-03-20T21:33:00.353Z,7.10
2023-03-20T21:35:50.718Z,6.17
2023-03-20T21:39:06.832Z,7.80
2023-03-20T21:41:49.194Z,8.77
2023-03-20T21:51:42.216Z,8.00
2023-03-20T21:55:00.615Z,6.80
2023-03-20T22:04:06.255Z,6.90
2023-03-20T22:10:37.594Z,6.50
2023-03-20T22:23:12.869Z,6.67
2023-03-20T22:26:25.265Z,7.30
2023-03-20T22:38:55.523Z,8.60
2023-03-20T22:47:38.058Z,9.10
2023-03-20T22:50:26.535Z,8.67
2023-03-20T22:53:15.400Z,8.10
2023-03-20T22:56:04.213Z,8.30
2023-03-20T22:58:53.997Z,9.47
2023-03-20T23:01:42.508Z,9.00
2023-03-20T23:04:31.311Z,8.80
2023-03-20T23:07:19.919Z,9.13
2023-03-20T23:10:09.917Z,10.10
2023-03-20T23:12:58.463Z,9.23
2023-03-20T23:15:50.523Z,9.57
2023-03-20T23:18:39.226Z,9.90
2023-03-20T23:21:28.234Z,9.30
2023-03-20T23:24:16.896Z,9.20
2023-03-20T23:27:05.640Z,9.20
2023-03-20T23:29:54.100Z,9.17
2023-03-20T23:32:44.087Z,9.40
2023-03-20T23:35:32.564Z,8.73
2023-03-20T23:38:21.118Z,9.13
2023-03-20T23:41:10.753Z,9.00
2023-03-20T23:43:59.298Z,9.07
2023-03-20T23:46:48.417Z,9.10
2023-03-20T23:49:39.750Z,8.43
2023-03-20T23:52:28.166Z,8.13
2023-03-20T23:55:21.450Z,9.27
2023-03-20T23:58:09.995Z,8.50
